KTTN/TTN METAR and TAF weather

Enter ICAO airport designator
Station Type Date Time Source
KTTN METAR 2019/05/25 14:53 UTC NOAA

KTTN 251453Z 17006KT 10SM OVC075 18/12 A3024 RMK AO2 SLP233 T01830117 50004


Station Type Date Time Source
KTTN Decoded METAR 2019/05/25 14:53 UTC NOAA

TRENTON MERCER COUNTY AIRPORT , NJ, United States (KTTN) 40-17N 074-49W 59M
May 25, 2019 - 10:53 AM EDT / 2019.05.25 1453 UTC
Wind: from the S (170 degrees) at 7 MPH (6 KT):0
Visibility: 10 mile(s):0
Sky conditions: overcast
Temperature: 64.9 F (18.3 C)
Dew Point: 53.1 F (11.7 C)
Relative Humidity: 65%
Pressure (altimeter): 30.24 in. Hg (1024 hPa)
Pressure tendency: 0.01 inches (0.4 hPa) higher than three hours ago
ob: KTTN 251453Z 17006KT 10SM OVC075 18/12 A3024 RMK AO2 SLP233 T01830117 50004
cycle: 15

Station Type Date Time Source
KTTN TAF 2019/05/25 14:15 UTC NOAA

TAF
AMD KTTN 251412Z 2514/2612 18008KT P6SM BKN080
FM260500 18006KT P6SM VCSH BKN025
FM260700 19005KT P6SM VCSH BKN015
FM261000 24008KT P6SM BKN020

Example: see airport list